sensor_id;sensor_type;location;lat;lon;timestamp;P1;durP1;ratioP1;P2;durP2;ratioP2
49962;SDS011;36180;57.678;11.910;2023-06-26T00:00:35;5.80;;;5.20;;
49962;SDS011;36180;57.678;11.910;2023-06-26T00:03:03;6.05;;;5.45;;
49962;SDS011;36180;57.678;11.910;2023-06-26T00:05:31;6.90;;;5.85;;
49962;SDS011;36180;57.678;11.910;2023-06-26T00:07:59;7.63;;;5.65;;
49962;SDS011;36180;57.678;11.910;2023-06-26T00:10:26;8.32;;;6.15;;
49962;SDS011;36180;57.678;11.910;2023-06-26T00:12:53;5.85;;;5.13;;
49962;SDS011;36180;57.678;11.910;2023-06-26T00:15:21;5.82;;;5.22;;
49962;SDS011;36180;57.678;11.910;2023-06-26T00:17:48;6.50;;;5.15;;
49962;SDS011;36180;57.678;11.910;2023-06-26T00:20:15;6.53;;;4.95;;
49962;SDS011;36180;57.678;11.910;2023-06-26T00:22:45;5.28;;;4.78;;
49962;SDS011;36180;57.678;11.910;2023-06-26T00:25:12;6.65;;;5.28;;
49962;SDS011;36180;57.678;11.910;2023-06-26T00:27:39;7.80;;;5.22;;
49962;SDS011;36180;57.678;11.910;2023-06-26T00:30:07;6.18;;;5.57;;
49962;SDS011;36180;57.678;11.910;2023-06-26T00:32:35;6.47;;;5.32;;
49962;SDS011;36180;57.678;11.910;2023-06-26T00:35:02;6.75;;;5.10;;
49962;SDS011;36180;57.678;11.910;2023-06-26T00:37:30;5.90;;;5.10;;
49962;SDS011;36180;57.678;11.910;2023-06-26T00:39:59;9.60;;;5.45;;
49962;SDS011;36180;57.678;11.910;2023-06-26T00:42:26;7.90;;;5.53;;
49962;SDS011;36180;57.678;11.910;2023-06-26T00:44:53;6.00;;;5.40;;
49962;SDS011;36180;57.678;11.910;2023-06-26T00:47:20;7.45;;;5.43;;
49962;SDS011;36180;57.678;11.910;2023-06-26T00:49:47;6.47;;;5.45;;
49962;SDS011;36180;57.678;11.910;2023-06-26T00:52:15;5.95;;;5.35;;
49962;SDS011;36180;57.678;11.910;2023-06-26T00:54:43;7.03;;;5.15;;
49962;SDS011;36180;57.678;11.910;2023-06-26T00:57:11;6.47;;;5.82;;
49962;SDS011;36180;57.678;11.910;2023-06-26T00:59:38;6.70;;;5.72;;
49962;SDS011;36180;57.678;11.910;2023-06-26T01:02:05;7.13;;;5.60;;
49962;SDS011;36180;57.678;11.910;2023-06-26T01:04:32;7.78;;;5.97;;
49962;SDS011;36180;57.678;11.910;2023-06-26T01:06:59;6.85;;;5.65;;
49962;SDS011;36180;57.678;11.910;2023-06-26T01:09:28;6.28;;;5.15;;
49962;SDS011;36180;57.678;11.910;2023-06-26T01:11:55;5.93;;;5.32;;
49962;SDS011;36180;57.678;11.910;2023-06-26T01:14:24;6.10;;;5.20;;
49962;SDS011;36180;57.678;11.910;2023-06-26T01:16:51;6.38;;;4.90;;
49962;SDS011;36180;57.678;11.910;2023-06-26T01:19:23;7.97;;;5.03;;
49962;SDS011;36180;57.678;11.910;2023-06-26T01:21:51;5.75;;;5.05;;
49962;SDS011;36180;57.678;11.910;2023-06-26T01:24:24;5.18;;;4.68;;
49962;SDS011;36180;57.678;11.910;2023-06-26T01:26:54;5.45;;;4.90;;
49962;SDS011;36180;57.678;11.910;2023-06-26T01:29:21;5.95;;;4.93;;
49962;SDS011;36180;57.678;11.910;2023-06-26T01:31:50;5.30;;;4.80;;
49962;SDS011;36180;57.678;11.910;2023-06-26T01:34:18;6.07;;;5.32;;
49962;SDS011;36180;57.678;11.910;2023-06-26T01:36:45;6.10;;;4.85;;
49962;SDS011;36180;57.678;11.910;2023-06-26T01:39:14;5.03;;;4.53;;
49962;SDS011;36180;57.678;11.910;2023-06-26T01:41:42;8.13;;;5.45;;
49962;SDS011;36180;57.678;11.910;2023-06-26T01:44:17;6.82;;;5.75;;
49962;SDS011;36180;57.678;11.910;2023-06-26T01:46:52;8.57;;;5.70;;
49962;SDS011;36180;57.678;11.910;2023-06-26T01:49:25;8.18;;;5.78;;
49962;SDS011;36180;57.678;11.910;2023-06-26T01:51:58;9.32;;;5.93;;
49962;SDS011;36180;57.678;11.910;2023-06-26T01:54:30;8.80;;;5.65;;
49962;SDS011;36180;57.678;11.910;2023-06-26T01:57:02;7.95;;;5.70;;
49962;SDS011;36180;57.678;11.910;2023-06-26T01:59:32;10.05;;;6.22;;
49962;SDS011;36180;57.678;11.910;2023-06-26T02:02:01;7.30;;;5.93;;
49962;SDS011;36180;57.678;11.910;2023-06-26T02:04:28;8.65;;;6.63;;
49962;SDS011;36180;57.678;11.910;2023-06-26T02:06:55;15.32;;;6.80;;
49962;SDS011;36180;57.678;11.910;2023-06-26T02:09:22;8.60;;;6.50;;
49962;SDS011;36180;57.678;11.910;2023-06-26T02:11:49;7.68;;;6.88;;
49962;SDS011;36180;57.678;11.910;2023-06-26T02:14:16;9.15;;;6.68;;
49962;SDS011;36180;57.678;11.910;2023-06-26T02:16:45;7.55;;;6.53;;
49962;SDS011;36180;57.678;11.910;2023-06-26T02:19:12;7.78;;;6.97;;
49962;SDS011;36180;57.678;11.910;2023-06-26T02:21:46;7.40;;;6.68;;
49962;SDS011;36180;57.678;11.910;2023-06-26T02:24:15;7.13;;;6.10;;
49962;SDS011;36180;57.678;11.910;2023-06-26T02:26:42;7.75;;;6.50;;
49962;SDS011;36180;57.678;11.910;2023-06-26T02:29:10;7.47;;;6.63;;
49962;SDS011;36180;57.678;11.910;2023-06-26T02:31:39;7.43;;;5.82;;
49962;SDS011;36180;57.678;11.910;2023-06-26T02:34:07;7.32;;;5.95;;
49962;SDS011;36180;57.678;11.910;2023-06-26T02:36:34;6.85;;;5.97;;
49962;SDS011;36180;57.678;11.910;2023-06-26T02:39:04;6.38;;;5.72;;
49962;SDS011;36180;57.678;11.910;2023-06-26T02:41:32;9.40;;;6.15;;
49962;SDS011;36180;57.678;11.910;2023-06-26T02:44:00;6.18;;;5.20;;
49962;SDS011;36180;57.678;11.910;2023-06-26T02:46:27;6.10;;;5.47;;
49962;SDS011;36180;57.678;11.910;2023-06-26T02:48:56;7.07;;;5.32;;
49962;SDS011;36180;57.678;11.910;2023-06-26T02:51:24;6.95;;;5.00;;
49962;SDS011;36180;57.678;11.910;2023-06-26T02:53:53;9.30;;;5.15;;
49962;SDS011;36180;57.678;11.910;2023-06-26T02:56:20;6.00;;;5.20;;
49962;SDS011;36180;57.678;11.910;2023-06-26T02:58:47;6.13;;;5.50;;
49962;SDS011;36180;57.678;11.910;2023-06-26T03:01:14;7.95;;;5.43;;
49962;SDS011;36180;57.678;11.910;2023-06-26T03:03:43;6.93;;;5.20;;
49962;SDS011;36180;57.678;11.910;2023-06-26T03:06:14;5.90;;;5.30;;
49962;SDS011;36180;57.678;11.910;2023-06-26T03:08:44;6.10;;;5.10;;
49962;SDS011;36180;57.678;11.910;2023-06-26T03:11:13;5.32;;;4.82;;
49962;SDS011;36180;57.678;11.910;2023-06-26T03:13:41;5.65;;;4.93;;
49962;SDS011;36180;57.678;11.910;2023-06-26T03:16:08;6.68;;;5.18;;
49962;SDS011;36180;57.678;11.910;2023-06-26T03:18:35;6.53;;;5.15;;
49962;SDS011;36180;57.678;11.910;2023-06-26T03:21:02;6.05;;;5.45;;
49962;SDS011;36180;57.678;11.910;2023-06-26T03:23:29;6.70;;;6.03;;
49962;SDS011;36180;57.678;11.910;2023-06-26T03:25:58;7.25;;;5.90;;
49962;SDS011;36180;57.678;11.910;2023-06-26T03:28:28;7.03;;;5.82;;
49962;SDS011;36180;57.678;11.910;2023-06-26T03:30:56;7.70;;;5.82;;
49962;SDS011;36180;57.678;11.910;2023-06-26T03:33:25;6.07;;;5.38;;
49962;SDS011;36180;57.678;11.910;2023-06-26T03:35:53;5.90;;;5.13;;
49962;SDS011;36180;57.678;11.910;2023-06-26T03:38:21;5.53;;;5.03;;
49962;SDS011;36180;57.678;11.910;2023-06-26T03:40:51;5.65;;;4.90;;
49962;SDS011;36180;57.678;11.910;2023-06-26T03:43:19;6.40;;;5.03;;
49962;SDS011;36180;57.678;11.910;2023-06-26T03:46:16;6.38;;;4.68;;
49962;SDS011;36180;57.678;11.910;2023-06-26T03:48:43;5.38;;;4.82;;
49962;SDS011;36180;57.678;11.910;2023-06-26T03:51:10;5.90;;;4.75;;
49962;SDS011;36180;57.678;11.910;2023-06-26T03:53:37;6.22;;;4.82;;
49962;SDS011;36180;57.678;11.910;2023-06-26T03:56:04;5.63;;;5.07;;
49962;SDS011;36180;57.678;11.910;2023-06-26T03:58:33;5.53;;;4.95;;
49962;SDS011;36180;57.678;11.910;2023-06-26T04:01:00;6.03;;;4.78;;
49962;SDS011;36180;57.678;11.910;2023-06-26T04:03:27;5.15;;;4.65;;
49962;SDS011;36180;57.678;11.910;2023-06-26T04:05:55;4.82;;;4.25;;
49962;SDS011;36180;57.678;11.910;2023-06-26T04:08:23;5.07;;;4.57;;
49962;SDS011;36180;57.678;11.910;2023-06-26T04:10:51;5.70;;;4.55;;
49962;SDS011;36180;57.678;11.910;2023-06-26T04:13:19;6.25;;;4.72;;
49962;SDS011;36180;57.678;11.910;2023-06-26T04:15:47;11.65;;;4.65;;
49962;SDS011;36180;57.678;11.910;2023-06-26T04:18:14;6.13;;;5.07;;
49962;SDS011;36180;57.678;11.910;2023-06-26T04:20:41;5.88;;;4.95;;
49962;SDS011;36180;57.678;11.910;2023-06-26T04:23:32;4.95;;;4.43;;
49962;SDS011;36180;57.678;11.910;2023-06-26T04:26:00;5.30;;;4.80;;
49962;SDS011;36180;57.678;11.910;2023-06-26T04:28:30;5.65;;;4.45;;
49962;SDS011;36180;57.678;11.910;2023-06-26T04:30:58;5.57;;;4.22;;
49962;SDS011;36180;57.678;11.910;2023-06-26T04:33:26;4.65;;;4.25;;
49962;SDS011;36180;57.678;11.910;2023-06-26T04:35:53;4.57;;;4.18;;
49962;SDS011;36180;57.678;11.910;2023-06-26T04:38:20;5.93;;;4.32;;
49962;SDS011;36180;57.678;11.910;2023-06-26T04:40:47;4.30;;;3.88;;
49962;SDS011;36180;57.678;11.910;2023-06-26T04:43:15;6.93;;;4.05;;
49962;SDS011;36180;57.678;11.910;2023-06-26T04:45:42;4.72;;;3.97;;
49962;SDS011;36180;57.678;11.910;2023-06-26T04:48:10;4.53;;;4.05;;
49962;SDS011;36180;57.678;11.910;2023-06-26T04:50:37;6.07;;;4.07;;
49962;SDS011;36180;57.678;11.910;2023-06-26T04:53:06;5.15;;;4.10;;
49962;SDS011;36180;57.678;11.910;2023-06-26T04:55:33;4.30;;;3.90;;
49962;SDS011;36180;57.678;11.910;2023-06-26T04:58:01;4.80;;;4.00;;
49962;SDS011;36180;57.678;11.910;2023-06-26T05:00:28;5.25;;;4.32;;
49962;SDS011;36180;57.678;11.910;2023-06-26T05:02:55;6.10;;;4.07;;
49962;SDS011;36180;57.678;11.910;2023-06-26T05:05:27;4.45;;;3.92;;
49962;SDS011;36180;57.678;11.910;2023-06-26T05:07:54;6.45;;;4.18;;
49962;SDS011;36180;57.678;11.910;2023-06-26T05:10:22;4.45;;;3.97;;
49962;SDS011;36180;57.678;11.910;2023-06-26T05:12:49;7.90;;;4.10;;
49962;SDS011;36180;57.678;11.910;2023-06-26T05:15:16;8.70;;;4.57;;
49962;SDS011;36180;57.678;11.910;2023-06-26T05:17:43;6.50;;;4.30;;
49962;SDS011;36180;57.678;11.910;2023-06-26T05:20:11;8.73;;;4.75;;
49962;SDS011;36180;57.678;11.910;2023-06-26T05:22:40;4.32;;;3.92;;
49962;SDS011;36180;57.678;11.910;2023-06-26T05:25:08;4.90;;;4.13;;
49962;SDS011;36180;57.678;11.910;2023-06-26T05:27:36;10.02;;;4.38;;
49962;SDS011;36180;57.678;11.910;2023-06-26T05:30:04;6.93;;;3.92;;
49962;SDS011;36180;57.678;11.910;2023-06-26T05:32:32;6.88;;;4.53;;
49962;SDS011;36180;57.678;11.910;2023-06-26T05:35:01;7.53;;;4.32;;
49962;SDS011;36180;57.678;11.910;2023-06-26T05:37:29;6.07;;;4.50;;
49962;SDS011;36180;57.678;11.910;2023-06-26T05:39:59;6.18;;;4.38;;
49962;SDS011;36180;57.678;11.910;2023-06-26T05:42:28;6.70;;;4.50;;
49962;SDS011;36180;57.678;11.910;2023-06-26T05:44:55;12.50;;;4.15;;
49962;SDS011;36180;57.678;11.910;2023-06-26T05:47:22;7.03;;;4.10;;
49962;SDS011;36180;57.678;11.910;2023-06-26T05:49:49;9.07;;;4.43;;
49962;SDS011;36180;57.678;11.910;2023-06-26T05:52:17;11.27;;;4.97;;
49962;SDS011;36180;57.678;11.910;2023-06-26T05:54:44;8.82;;;4.70;;
49962;SDS011;36180;57.678;11.910;2023-06-26T05:57:13;9.30;;;4.50;;
49962;SDS011;36180;57.678;11.910;2023-06-26T05:59:42;7.63;;;4.35;;
49962;SDS011;36180;57.678;11.910;2023-06-26T06:02:10;7.47;;;3.60;;
49962;SDS011;36180;57.678;11.910;2023-06-26T06:04:37;4.85;;;3.72;;
49962;SDS011;36180;57.678;11.910;2023-06-26T06:07:05;6.32;;;3.25;;
49962;SDS011;36180;57.678;11.910;2023-06-26T06:09:32;4.10;;;3.33;;
49962;SDS011;36180;57.678;11.910;2023-06-26T06:11:59;4.90;;;2.80;;
49962;SDS011;36180;57.678;11.910;2023-06-26T06:14:28;6.88;;;3.40;;
49962;SDS011;36180;57.678;11.910;2023-06-26T06:16:55;3.38;;;3.08;;
49962;SDS011;36180;57.678;11.910;2023-06-26T06:19:22;6.07;;;3.10;;
49962;SDS011;36180;57.678;11.910;2023-06-26T06:21:49;5.38;;;3.25;;
49962;SDS011;36180;57.678;11.910;2023-06-26T06:24:17;3.05;;;2.70;;
49962;SDS011;36180;57.678;11.910;2023-06-26T06:26:44;5.35;;;3.42;;
49962;SDS011;36180;57.678;11.910;2023-06-26T06:29:11;4.40;;;3.15;;
49962;SDS011;36180;57.678;11.910;2023-06-26T06:31:39;4.78;;;3.20;;
49962;SDS011;36180;57.678;11.910;2023-06-26T06:34:06;5.78;;;3.30;;
49962;SDS011;36180;57.678;11.910;2023-06-26T06:36:33;4.63;;;3.13;;
49962;SDS011;36180;57.678;11.910;2023-06-26T06:39:00;6.00;;;3.05;;
49962;SDS011;36180;57.678;11.910;2023-06-26T06:41:28;4.30;;;2.92;;
49962;SDS011;36180;57.678;11.910;2023-06-26T06:43:55;7.70;;;2.80;;
49962;SDS011;36180;57.678;11.910;2023-06-26T06:46:22;5.82;;;2.65;;
49962;SDS011;36180;57.678;11.910;2023-06-26T06:48:53;4.93;;;2.83;;
49962;SDS011;36180;57.678;11.910;2023-06-26T06:51:21;3.70;;;2.78;;
49962;SDS011;36180;57.678;11.910;2023-06-26T06:53:48;2.90;;;2.67;;
49962;SDS011;36180;57.678;11.910;2023-06-26T06:56:15;2.83;;;2.40;;
49962;SDS011;36180;57.678;11.910;2023-06-26T06:58:42;3.13;;;2.47;;
49962;SDS011;36180;57.678;11.910;2023-06-26T07:01:11;2.75;;;2.22;;
49962;SDS011;36180;57.678;11.910;2023-06-26T07:03:38;3.85;;;2.28;;
49962;SDS011;36180;57.678;11.910;2023-06-26T07:06:07;3.25;;;2.60;;
49962;SDS011;36180;57.678;11.910;2023-06-26T07:08:34;3.92;;;2.72;;
49962;SDS011;36180;57.678;11.910;2023-06-26T07:11:01;7.60;;;2.47;;
49962;SDS011;36180;57.678;11.910;2023-06-26T07:13:28;4.82;;;3.00;;
49962;SDS011;36180;57.678;11.910;2023-06-26T07:15:56;5.75;;;2.83;;
49962;SDS011;36180;57.678;11.910;2023-06-26T07:18:23;3.20;;;2.47;;
49962;SDS011;36180;57.678;11.910;2023-06-26T07:20:50;2.90;;;2.70;;
49962;SDS011;36180;57.678;11.910;2023-06-26T07:23:18;3.10;;;2.80;;
49962;SDS011;36180;57.678;11.910;2023-06-26T07:25:45;3.78;;;3.20;;
49962;SDS011;36180;57.678;11.910;2023-06-26T07:28:12;3.25;;;2.92;;
49962;SDS011;36180;57.678;11.910;2023-06-26T07:30:39;3.30;;;3.00;;
49962;SDS011;36180;57.678;11.910;2023-06-26T07:33:07;3.42;;;3.05;;
49962;SDS011;36180;57.678;11.910;2023-06-26T07:35:34;4.40;;;3.40;;
49962;SDS011;36180;57.678;11.910;2023-06-26T07:38:01;4.63;;;3.42;;
49962;SDS011;36180;57.678;11.910;2023-06-26T07:40:29;6.47;;;4.70;;
49962;SDS011;36180;57.678;11.910;2023-06-26T07:42:56;5.13;;;4.57;;
49962;SDS011;36180;57.678;11.910;2023-06-26T07:45:24;6.65;;;4.88;;
49962;SDS011;36180;57.678;11.910;2023-06-26T07:47:51;8.48;;;6.13;;
49962;SDS011;36180;57.678;11.910;2023-06-26T07:50:18;7.85;;;5.32;;
49962;SDS011;36180;57.678;11.910;2023-06-26T07:52:47;8.82;;;5.18;;
49962;SDS011;36180;57.678;11.910;2023-06-26T07:55:15;10.25;;;5.00;;
49962;SDS011;36180;57.678;11.910;2023-06-26T07:57:43;9.60;;;5.60;;
49962;SDS011;36180;57.678;11.910;2023-06-26T08:00:11;9.98;;;5.55;;
49962;SDS011;36180;57.678;11.910;2023-06-26T08:02:41;5.25;;;4.75;;
49962;SDS011;36180;57.678;11.910;2023-06-26T08:05:08;5.07;;;4.13;;
49962;SDS011;36180;57.678;11.910;2023-06-26T08:07:35;6.25;;;5.25;;
49962;SDS011;36180;57.678;11.910;2023-06-26T08:10:02;10.57;;;5.28;;
49962;SDS011;36180;57.678;11.910;2023-06-26T08:12:30;6.55;;;4.40;;
49962;SDS011;36180;57.678;11.910;2023-06-26T08:14:58;10.70;;;4.82;;
49962;SDS011;36180;57.678;11.910;2023-06-26T08:17:28;4.22;;;3.83;;
49962;SDS011;36180;57.678;11.910;2023-06-26T08:19:55;5.00;;;4.35;;
49962;SDS011;36180;57.678;11.910;2023-06-26T08:22:22;5.32;;;3.85;;
49962;SDS011;36180;57.678;11.910;2023-06-26T08:24:49;6.30;;;4.32;;
49962;SDS011;36180;57.678;11.910;2023-06-26T08:27:16;4.70;;;4.20;;
49962;SDS011;36180;57.678;11.910;2023-06-26T08:29:43;5.28;;;4.28;;
49962;SDS011;36180;57.678;11.910;2023-06-26T08:32:12;6.32;;;4.60;;
49962;SDS011;36180;57.678;11.910;2023-06-26T08:34:39;5.68;;;4.40;;
49962;SDS011;36180;57.678;11.910;2023-06-26T08:37:06;6.47;;;4.53;;
49962;SDS011;36180;57.678;11.910;2023-06-26T08:39:34;6.63;;;4.53;;
49962;SDS011;36180;57.678;11.910;2023-06-26T08:42:01;4.82;;;4.03;;
49962;SDS011;36180;57.678;11.910;2023-06-26T08:44:28;5.13;;;4.25;;
49962;SDS011;36180;57.678;11.910;2023-06-26T08:46:55;5.22;;;4.55;;
49962;SDS011;36180;57.678;11.910;2023-06-26T08:49:25;5.72;;;4.80;;
49962;SDS011;36180;57.678;11.910;2023-06-26T08:51:56;5.13;;;4.53;;
49962;SDS011;36180;57.678;11.910;2023-06-26T08:54:27;8.65;;;5.15;;
49962;SDS011;36180;57.678;11.910;2023-06-26T08:57:01;6.88;;;4.70;;
49962;SDS011;36180;57.678;11.910;2023-06-26T08:59:28;7.45;;;5.20;;
49962;SDS011;36180;57.678;11.910;2023-06-26T09:01:55;6.57;;;5.30;;
49962;SDS011;36180;57.678;11.910;2023-06-26T09:04:24;7.65;;;4.60;;
49962;SDS011;36180;57.678;11.910;2023-06-26T09:06:52;5.50;;;4.63;;
49962;SDS011;36180;57.678;11.910;2023-06-26T09:09:19;6.47;;;4.43;;
49962;SDS011;36180;57.678;11.910;2023-06-26T09:11:46;5.22;;;4.32;;
49962;SDS011;36180;57.678;11.910;2023-06-26T09:14:13;5.03;;;4.15;;
49962;SDS011;36180;57.678;11.910;2023-06-26T09:16:40;4.53;;;3.90;;
49962;SDS011;36180;57.678;11.910;2023-06-26T09:19:09;6.22;;;4.20;;
49962;SDS011;36180;57.678;11.910;2023-06-26T09:21:39;4.68;;;4.03;;
49962;SDS011;36180;57.678;11.910;2023-06-26T09:24:07;6.00;;;3.50;;
49962;SDS011;36180;57.678;11.910;2023-06-26T09:26:35;4.55;;;3.50;;
49962;SDS011;36180;57.678;11.910;2023-06-26T09:29:02;5.45;;;3.50;;
49962;SDS011;36180;57.678;11.910;2023-06-26T09:31:29;4.80;;;3.50;;
49962;SDS011;36180;57.678;11.910;2023-06-26T09:33:57;4.43;;;3.30;;
49962;SDS011;36180;57.678;11.910;2023-06-26T09:36:27;6.32;;;3.95;;
49962;SDS011;36180;57.678;11.910;2023-06-26T09:39:00;5.63;;;4.05;;
49962;SDS011;36180;57.678;11.910;2023-06-26T09:41:27;5.53;;;4.00;;
49962;SDS011;36180;57.678;11.910;2023-06-26T09:43:57;5.28;;;3.90;;
49962;SDS011;36180;57.678;11.910;2023-06-26T09:46:28;5.45;;;3.30;;
49962;SDS011;36180;57.678;11.910;2023-06-26T09:49:02;4.18;;;3.72;;
49962;SDS011;36180;57.678;11.910;2023-06-26T09:51:30;4.60;;;3.60;;
49962;SDS011;36180;57.678;11.910;2023-06-26T09:53:59;4.22;;;3.83;;
49962;SDS011;36180;57.678;11.910;2023-06-26T09:56:27;5.68;;;4.05;;
49962;SDS011;36180;57.678;11.910;2023-06-26T09:58:55;5.38;;;4.15;;
49962;SDS011;36180;57.678;11.910;2023-06-26T10:01:22;5.05;;;3.88;;
49962;SDS011;36180;57.678;11.910;2023-06-26T10:03:50;5.03;;;4.07;;
49962;SDS011;36180;57.678;11.910;2023-06-26T10:06:18;6.22;;;4.22;;
49962;SDS011;36180;57.678;11.910;2023-06-26T10:08:46;4.85;;;4.32;;
49962;SDS011;36180;57.678;11.910;2023-06-26T10:11:16;5.47;;;3.83;;
49962;SDS011;36180;57.678;11.910;2023-06-26T10:13:45;4.55;;;4.15;;
49962;SDS011;36180;57.678;11.910;2023-06-26T10:16:15;5.72;;;3.78;;
49962;SDS011;36180;57.678;11.910;2023-06-26T10:18:53;4.32;;;3.92;;
49962;SDS011;36180;57.678;11.910;2023-06-26T10:21:24;5.60;;;3.75;;
49962;SDS011;36180;57.678;11.910;2023-06-26T10:23:53;4.28;;;3.42;;
49962;SDS011;36180;57.678;11.910;2023-06-26T10:26:23;3.40;;;3.10;;
49962;SDS011;36180;57.678;11.910;2023-06-26T10:28:51;3.63;;;3.33;;
49962;SDS011;36180;57.678;11.910;2023-06-26T10:31:19;4.03;;;3.58;;
49962;SDS011;36180;57.678;11.910;2023-06-26T10:33:47;5.90;;;3.78;;
49962;SDS011;36180;57.678;11.910;2023-06-26T10:36:15;6.30;;;3.50;;
49962;SDS011;36180;57.678;11.910;2023-06-26T10:38:50;5.70;;;3.30;;
49962;SDS011;36180;57.678;11.910;2023-06-26T10:41:23;3.65;;;3.35;;
49962;SDS011;36180;57.678;11.910;2023-06-26T10:43:51;4.40;;;3.90;;
49962;SDS011;36180;57.678;11.910;2023-06-26T10:46:18;3.80;;;3.40;;
49962;SDS011;36180;57.678;11.910;2023-06-26T10:51:31;4.82;;;3.67;;
49962;SDS011;36180;57.678;11.910;2023-06-26T10:54:00;4.10;;;3.50;;
49962;SDS011;36180;57.678;11.910;2023-06-26T10:56:44;3.13;;;2.92;;
49962;SDS011;36180;57.678;11.910;2023-06-26T10:59:16;4.63;;;3.22;;
49962;SDS011;36180;57.678;11.910;2023-06-26T11:01:45;5.15;;;3.47;;
49962;SDS011;36180;57.678;11.910;2023-06-26T11:04:13;3.58;;;3.20;;
49962;SDS011;36180;57.678;11.910;2023-06-26T11:06:43;3.65;;;3.13;;
49962;SDS011;36180;57.678;11.910;2023-06-26T11:09:13;4.88;;;3.45;;
49962;SDS011;36180;57.678;11.910;2023-06-26T11:12:02;58.78;;;5.60;;
49962;SDS011;36180;57.678;11.910;2023-06-26T11:14:32;4.40;;;3.25;;
49962;SDS011;36180;57.678;11.910;2023-06-26T11:17:01;3.55;;;3.10;;
49962;SDS011;36180;57.678;11.910;2023-06-26T11:19:29;3.83;;;3.05;;
49962;SDS011;36180;57.678;11.910;2023-06-26T11:22:01;7.28;;;3.15;;
49962;SDS011;36180;57.678;11.910;2023-06-26T11:24:29;4.93;;;2.85;;
49962;SDS011;36180;57.678;11.910;2023-06-26T11:27:02;4.30;;;2.90;;
49962;SDS011;36180;57.678;11.910;2023-06-26T11:29:31;5.68;;;3.50;;
49962;SDS011;36180;57.678;11.910;2023-06-26T11:31:59;3.10;;;2.83;;
49962;SDS011;36180;57.678;11.910;2023-06-26T11:34:32;4.68;;;2.90;;
49962;SDS011;36180;57.678;11.910;2023-06-26T11:37:00;5.40;;;3.00;;
49962;SDS011;36180;57.678;11.910;2023-06-26T11:39:29;16.00;;;3.15;;
49962;SDS011;36180;57.678;11.910;2023-06-26T11:41:56;5.90;;;2.97;;
49962;SDS011;36180;57.678;11.910;2023-06-26T11:44:25;6.55;;;3.50;;
49962;SDS011;36180;57.678;11.910;2023-06-26T11:46:56;3.78;;;3.17;;
49962;SDS011;36180;57.678;11.910;2023-06-26T11:49:23;7.07;;;3.35;;
49962;SDS011;36180;57.678;11.910;2023-06-26T11:51:52;4.45;;;3.22;;
49962;SDS011;36180;57.678;11.910;2023-06-26T11:54:24;4.20;;;3.35;;
49962;SDS011;36180;57.678;11.910;2023-06-26T11:56:55;4.68;;;3.20;;
49962;SDS011;36180;57.678;11.910;2023-06-26T11:59:31;5.20;;;3.22;;
49962;SDS011;36180;57.678;11.910;2023-06-26T12:02:00;3.47;;;3.15;;
49962;SDS011;36180;57.678;11.910;2023-06-26T12:04:27;4.25;;;2.83;;
49962;SDS011;36180;57.678;11.910;2023-06-26T12:06:55;4.10;;;3.00;;
49962;SDS011;36180;57.678;11.910;2023-06-26T12:09:23;6.25;;;3.70;;
49962;SDS011;36180;57.678;11.910;2023-06-26T12:11:51;6.30;;;3.15;;
49962;SDS011;36180;57.678;11.910;2023-06-26T12:14:19;5.10;;;3.30;;
49962;SDS011;36180;57.678;11.910;2023-06-26T12:16:48;4.40;;;3.08;;
49962;SDS011;36180;57.678;11.910;2023-06-26T12:19:15;4.53;;;2.97;;
49962;SDS011;36180;57.678;11.910;2023-06-26T12:21:49;3.50;;;3.20;;
49962;SDS011;36180;57.678;11.910;2023-06-26T12:24:18;4.72;;;3.30;;
49962;SDS011;36180;57.678;11.910;2023-06-26T12:26:47;4.80;;;3.03;;
49962;SDS011;36180;57.678;11.910;2023-06-26T12:29:18;5.07;;;3.20;;
49962;SDS011;36180;57.678;11.910;2023-06-26T12:31:50;3.63;;;2.92;;
49962;SDS011;36180;57.678;11.910;2023-06-26T12:34:18;5.17;;;3.20;;
49962;SDS011;36180;57.678;11.910;2023-06-26T12:36:46;3.80;;;3.08;;
49962;SDS011;36180;57.678;11.910;2023-06-26T12:39:15;4.22;;;2.50;;
49962;SDS011;36180;57.678;11.910;2023-06-26T12:41:49;4.75;;;3.25;;
49962;SDS011;36180;57.678;11.910;2023-06-26T12:44:21;3.38;;;3.08;;
49962;SDS011;36180;57.678;11.910;2023-06-26T12:46:55;4.93;;;3.63;;
49962;SDS011;36180;57.678;11.910;2023-06-26T12:49:30;5.15;;;4.50;;
49962;SDS011;36180;57.678;11.910;2023-06-26T12:51:59;4.00;;;3.63;;
49962;SDS011;36180;57.678;11.910;2023-06-26T12:54:26;4.00;;;3.67;;
49962;SDS011;36180;57.678;11.910;2023-06-26T12:56:53;5.72;;;3.42;;
49962;SDS011;36180;57.678;11.910;2023-06-26T12:59:21;4.38;;;3.92;;
49962;SDS011;36180;57.678;11.910;2023-06-26T13:01:48;4.88;;;4.47;;
49962;SDS011;36180;57.678;11.910;2023-06-26T13:04:17;7.05;;;4.60;;
49962;SDS011;36180;57.678;11.910;2023-06-26T13:06:44;4.40;;;4.00;;
49962;SDS011;36180;57.678;11.910;2023-06-26T13:09:11;5.45;;;4.28;;
49962;SDS011;36180;57.678;11.910;2023-06-26T13:11:38;6.03;;;4.30;;
49962;SDS011;36180;57.678;11.910;2023-06-26T13:14:05;5.05;;;4.55;;
49962;SDS011;36180;57.678;11.910;2023-06-26T13:16:32;5.65;;;4.20;;
49962;SDS011;36180;57.678;11.910;2023-06-26T13:19:00;7.63;;;5.30;;
49962;SDS011;36180;57.678;11.910;2023-06-26T13:21:29;7.28;;;5.60;;
49962;SDS011;36180;57.678;11.910;2023-06-26T13:23:56;7.18;;;5.10;;
49962;SDS011;36180;57.678;11.910;2023-06-26T13:26:24;6.47;;;4.63;;
49962;SDS011;36180;57.678;11.910;2023-06-26T13:28:52;6.80;;;5.57;;
49962;SDS011;36180;57.678;11.910;2023-06-26T13:31:19;5.72;;;5.13;;
49962;SDS011;36180;57.678;11.910;2023-06-26T13:33:47;6.30;;;4.93;;
49962;SDS011;36180;57.678;11.910;2023-06-26T13:36:15;5.35;;;4.75;;
49962;SDS011;36180;57.678;11.910;2023-06-26T13:38:43;5.93;;;4.72;;
49962;SDS011;36180;57.678;11.910;2023-06-26T13:41:10;7.65;;;4.75;;
49962;SDS011;36180;57.678;11.910;2023-06-26T13:43:37;8.18;;;4.45;;
49962;SDS011;36180;57.678;11.910;2023-06-26T13:46:04;4.40;;;3.42;;
49962;SDS011;36180;57.678;11.910;2023-06-26T13:48:32;7.53;;;4.03;;
49962;SDS011;36180;57.678;11.910;2023-06-26T13:50:59;6.88;;;3.53;;
49962;SDS011;36180;57.678;11.910;2023-06-26T13:53:26;8.38;;;3.45;;
49962;SDS011;36180;57.678;11.910;2023-06-26T13:55:54;7.15;;;3.63;;
49962;SDS011;36180;57.678;11.910;2023-06-26T13:58:21;10.93;;;3.80;;
49962;SDS011;36180;57.678;11.910;2023-06-26T14:00:52;14.25;;;3.67;;
49962;SDS011;36180;57.678;11.910;2023-06-26T14:03:19;9.43;;;4.65;;
49962;SDS011;36180;57.678;11.910;2023-06-26T14:05:46;10.13;;;4.32;;
49962;SDS011;36180;57.678;11.910;2023-06-26T14:08:13;6.68;;;3.60;;
49962;SDS011;36180;57.678;11.910;2023-06-26T14:10:40;11.88;;;4.30;;
49962;SDS011;36180;57.678;11.910;2023-06-26T14:13:09;11.60;;;4.15;;
49962;SDS011;36180;57.678;11.910;2023-06-26T14:15:40;14.55;;;4.43;;
49962;SDS011;36180;57.678;11.910;2023-06-26T14:18:07;14.25;;;4.63;;
49962;SDS011;36180;57.678;11.910;2023-06-26T14:20:34;17.27;;;4.55;;
49962;SDS011;36180;57.678;11.910;2023-06-26T14:23:02;10.85;;;4.53;;
49962;SDS011;36180;57.678;11.910;2023-06-26T14:25:29;21.65;;;5.60;;
49962;SDS011;36180;57.678;11.910;2023-06-26T14:27:56;15.60;;;5.25;;
49962;SDS011;36180;57.678;11.910;2023-06-26T14:30:25;21.50;;;6.05;;
49962;SDS011;36180;57.678;11.910;2023-06-26T14:32:52;51.13;;;6.60;;
49962;SDS011;36180;57.678;11.910;2023-06-26T14:35:19;61.38;;;7.85;;
49962;SDS011;36180;57.678;11.910;2023-06-26T14:37:47;26.48;;;6.68;;
49962;SDS011;36180;57.678;11.910;2023-06-26T14:40:14;31.70;;;7.60;;
49962;SDS011;36180;57.678;11.910;2023-06-26T14:42:41;25.23;;;7.05;;